createdAt,value
2019-05-03T00:01:52.730Z,3.77
2019-05-03T00:04:22.648Z,3.80
2019-05-03T00:06:52.768Z,4.37
2019-05-03T00:09:24.845Z,3.63
2019-05-03T00:11:55.640Z,3.23
2019-05-03T00:14:25.892Z,3.50
2019-05-03T00:16:58.034Z,3.60
2019-05-03T00:19:32.717Z,3.50
2019-05-03T00:22:06.770Z,3.30
2019-05-03T00:24:42.430Z,3.67
2019-05-03T00:27:14.648Z,3.80
2019-05-03T00:29:44.835Z,3.30
2019-05-03T00:32:18.230Z,3.90
2019-05-03T00:34:52.039Z,3.10
2019-05-03T00:37:26.669Z,3.77
2019-05-03T00:40:08.249Z,3.17
2019-05-03T00:42:42.400Z,3.33
2019-05-03T00:45:12.653Z,3.10
2019-05-03T00:47:50.481Z,3.07
2019-05-03T00:50:22.457Z,4.30
2019-05-03T00:52:51.937Z,4.10
2019-05-03T00:55:22.248Z,4.50
2019-05-03T00:57:52.250Z,4.73
2019-05-03T01:00:22.821Z,4.33
2019-05-03T01:02:52.918Z,4.00
2019-05-03T01:05:23.635Z,4.77
2019-05-03T01:07:53.300Z,3.50
2019-05-03T01:10:23.387Z,4.03
2019-05-03T01:12:57.656Z,4.53
2019-05-03T01:15:36.607Z,3.40
2019-05-03T01:18:08.055Z,3.67
2019-05-03T01:20:37.914Z,4.00
2019-05-03T01:23:08.710Z,3.93
2019-05-03T01:25:38.650Z,4.30
2019-05-03T01:28:09.884Z,4.50
2019-05-03T01:30:39.570Z,4.00
2019-05-03T01:33:12.015Z,3.70
2019-05-03T01:35:42.801Z,3.50
2019-05-03T01:38:12.497Z,3.33
2019-05-03T01:40:42.283Z,3.23
2019-05-03T01:43:12.059Z,2.93
2019-05-03T01:45:44.263Z,2.73
2019-05-03T01:48:36.788Z,2.60
2019-05-03T01:51:38.095Z,2.20
2019-05-03T01:54:08.513Z,2.20
2019-05-03T01:56:58.730Z,2.67
2019-05-03T01:59:24.111Z,2.77
2019-05-03T02:02:13.375Z,2.50
2019-05-03T02:04:47.070Z,2.07
2019-05-03T02:07:26.103Z,2.20
2019-05-03T02:09:57.889Z,2.33
2019-05-03T02:12:29.256Z,2.10
2019-05-03T02:14:59.325Z,2.50
2019-05-03T02:17:33.419Z,2.20
2019-05-03T02:20:04.644Z,2.00
2019-05-03T02:22:36.103Z,2.30
2019-05-03T02:25:07.419Z,2.80
2019-05-03T02:27:37.196Z,3.10
2019-05-03T02:30:08.415Z,2.33
2019-05-03T02:32:38.272Z,2.50
2019-05-03T02:35:07.884Z,2.30
2019-05-03T02:37:39.814Z,2.70
2019-05-03T02:40:13.126Z,2.27
2019-05-03T02:42:46.514Z,2.50
2019-05-03T02:45:25.925Z,2.50
2019-05-03T02:48:07.811Z,2.10
2019-05-03T02:50:38.117Z,2.53
2019-05-03T02:53:09.437Z,2.70
2019-05-03T02:55:40.983Z,2.53
2019-05-03T02:58:11.978Z,2.47
2019-05-03T03:01:00.046Z,2.70
2019-05-03T03:03:45.465Z,2.70
2019-05-03T03:06:38.849Z,2.60
2019-05-03T03:10:01.049Z,2.90
2019-05-03T03:13:16.482Z,2.80
2019-05-03T03:15:57.029Z,3.87
2019-05-03T03:18:51.500Z,3.77
2019-05-03T03:21:26.024Z,3.30
2019-05-03T03:24:06.272Z,3.20
2019-05-03T03:26:42.948Z,3.70
2019-05-03T03:29:11.822Z,3.27
2019-05-03T03:31:58.364Z,3.40
2019-05-03T03:34:32.393Z,3.67
2019-05-03T03:37:08.877Z,3.93
2019-05-03T03:39:36.341Z,4.53
2019-05-03T03:42:06.470Z,3.83
2019-05-03T03:44:36.909Z,4.10
2019-05-03T03:47:07.656Z,3.83
2019-05-03T03:49:40.601Z,4.10
2019-05-03T03:52:15.995Z,4.90
2019-05-03T03:55:07.947Z,4.50
2019-05-03T03:57:38.797Z,4.47
2019-05-03T04:00:10.387Z,4.57
2019-05-03T04:02:41.115Z,4.27
2019-05-03T04:05:10.868Z,3.90
2019-05-03T04:07:40.744Z,4.03
2019-05-03T04:10:15.546Z,4.20
2019-05-03T04:12:45.698Z,5.33
2019-05-03T04:15:48.585Z,4.57
2019-05-03T04:18:45.983Z,4.10
2019-05-03T04:21:16.270Z,3.53
2019-05-03T04:23:48.151Z,3.27
2019-05-03T04:26:18.250Z,3.67
2019-05-03T04:28:51.822Z,2.90
2019-05-03T04:31:21.523Z,3.40
2019-05-03T04:33:51.122Z,3.10
2019-05-03T04:36:21.585Z,3.13
2019-05-03T04:38:52.294Z,3.37
2019-05-03T04:41:22.258Z,3.27
2019-05-03T04:43:51.878Z,3.07
2019-05-03T04:46:25.835Z,3.13
2019-05-03T04:48:56.328Z,2.90
2019-05-03T04:51:26.356Z,2.90
2019-05-03T04:54:16.402Z,2.83
2019-05-03T04:56:46.917Z,2.93
2019-05-03T04:59:17.361Z,2.90
2019-05-03T05:01:47.017Z,2.97
2019-05-03T05:04:25.239Z,2.93
2019-05-03T05:06:57.750Z,2.80
2019-05-03T05:09:27.569Z,2.77
2019-05-03T05:11:59.581Z,3.10
2019-05-03T05:14:29.317Z,2.93
2019-05-03T05:17:05.865Z,3.13
2019-05-03T05:19:41.596Z,3.00
2019-05-03T05:22:20.404Z,3.60
2019-05-03T05:25:04.656Z,3.43
2019-05-03T05:27:49.399Z,3.07
2019-05-03T05:33:25.326Z,2.83
2019-05-03T05:35:56.821Z,2.50
2019-05-03T05:38:27.475Z,3.20
2019-05-03T05:40:57.665Z,3.13
2019-05-03T05:43:27.851Z,2.20
2019-05-03T05:45:58.975Z,2.43
2019-05-03T05:48:35.022Z,2.33
2019-05-03T05:51:04.640Z,2.87
2019-05-03T05:53:37.609Z,2.70
2019-05-03T05:56:25.127Z,2.87
2019-05-03T05:59:24.773Z,2.70
2019-05-03T06:02:10.767Z,3.00
2019-05-03T06:04:41.371Z,3.40
2019-05-03T06:07:39.035Z,3.20
2019-05-03T06:10:29.834Z,3.60
2019-05-03T06:13:27.099Z,3.27
2019-05-03T06:19:31.521Z,3.77
2019-05-03T06:22:17.506Z,3.40
2019-05-03T06:24:54.338Z,3.50
2019-05-03T06:27:30.353Z,3.40
2019-05-03T06:30:07.719Z,3.47
2019-05-03T06:32:50.684Z,3.77
2019-05-03T06:35:24.273Z,3.60
2019-05-03T06:37:58.439Z,3.37
2019-05-03T06:43:24.584Z,4.20
2019-05-03T06:46:49.948Z,4.20
2019-05-03T06:49:19.381Z,4.20
2019-05-03T06:51:50.850Z,4.63
2019-05-03T06:54:26.625Z,3.73
2019-05-03T06:57:00.091Z,4.07
2019-05-03T06:59:39.544Z,3.90
2019-05-03T07:02:30.613Z,3.97
2019-05-03T07:05:12.231Z,4.17
2019-05-03T07:13:22.279Z,4.40
2019-05-03T07:16:35.392Z,4.67
2019-05-03T07:19:14.909Z,4.60
2019-05-03T07:21:55.662Z,5.80
2019-05-03T07:27:08.205Z,6.10
2019-05-03T07:30:00.879Z,6.33
2019-05-03T07:32:31.499Z,6.17
2019-05-03T07:35:02.044Z,6.43
2019-05-03T07:37:34.749Z,5.17
2019-05-03T07:40:05.083Z,5.37
2019-05-03T07:42:37.046Z,5.00
2019-05-03T07:45:08.071Z,5.53
2019-05-03T07:47:40.709Z,5.23
2019-05-03T07:50:10.568Z,4.73
2019-05-03T07:52:42.542Z,4.30
2019-05-03T07:55:12.250Z,4.40
2019-05-03T07:57:55.753Z,4.80
2019-05-03T08:00:28.160Z,4.50
2019-05-03T08:02:58.926Z,4.13
2019-05-03T08:05:29.421Z,4.10
2019-05-03T08:08:06.735Z,3.90
2019-05-03T08:10:45.165Z,3.60
2019-05-03T08:13:15.347Z,3.50
2019-05-03T08:15:45.415Z,3.50
2019-05-03T08:18:18.088Z,3.80
2019-05-03T08:20:50.796Z,3.70
2019-05-03T08:23:30.493Z,3.40
2019-05-03T08:26:06.230Z,3.40
2019-05-03T08:28:54.459Z,3.37
2019-05-03T08:31:46.355Z,3.37
2019-05-03T08:34:30.208Z,3.27
2019-05-03T08:37:18.519Z,3.03
2019-05-03T08:41:02.167Z,3.10
2019-05-03T08:52:59.325Z,2.80
2019-05-03T08:55:38.378Z,3.17
2019-05-03T09:21:27.571Z,2.73
2019-05-03T09:23:57.372Z,3.57
2019-05-03T09:41:40.715Z,3.00
2019-05-03T10:01:35.721Z,2.20
2019-05-03T10:04:22.433Z,1.73
2019-05-03T10:24:12.095Z,2.43
2019-05-03T10:57:27.604Z,1.43
2019-05-03T11:03:15.969Z,1.40
2019-05-03T11:09:07.419Z,1.37
2019-05-03T11:11:37.103Z,1.60
2019-05-03T11:14:15.132Z,1.60
2019-05-03T11:25:45.854Z,1.50
2019-05-03T11:32:08.228Z,1.80
2019-05-03T11:41:32.158Z,2.20
2019-05-03T11:44:17.669Z,2.00
2019-05-03T11:46:47.128Z,2.17
2019-05-03T11:51:55.824Z,2.60
2019-05-03T11:54:32.600Z,2.77
2019-05-03T11:59:49.799Z,2.93
2019-05-03T12:05:28.998Z,3.17
2019-05-03T12:11:25.058Z,2.73
2019-05-03T12:14:27.528Z,2.37
2019-05-03T12:17:17.846Z,3.10
2019-05-03T12:22:18.522Z,1.93
2019-05-03T12:24:52.561Z,3.40
2019-05-03T12:27:24.337Z,3.20
2019-05-03T12:33:05.677Z,2.43
2019-05-03T12:36:16.439Z,3.87
2019-05-03T12:39:23.148Z,3.27
2019-05-03T12:42:07.680Z,2.03
2019-05-03T12:44:59.541Z,1.40
2019-05-03T12:53:25.353Z,1.40
2019-05-03T12:56:23.196Z,1.57
2019-05-03T13:04:26.701Z,2.90
2019-05-03T13:07:20.249Z,3.10
2019-05-03T13:12:34.855Z,3.17
2019-05-03T13:17:44.596Z,2.53
2019-05-03T13:23:00.522Z,2.23
2019-05-03T13:25:30.145Z,2.23
2019-05-03T13:27:59.640Z,2.90
2019-05-03T13:30:35.400Z,2.53
2019-05-03T13:33:29.879Z,3.90
2019-05-03T13:35:59.470Z,3.47
2019-05-03T13:38:35.955Z,3.07
2019-05-03T13:41:12.817Z,3.33
2019-05-03T13:44:05.169Z,3.53
2019-05-03T13:49:39.614Z,3.87
2019-05-03T13:52:16.486Z,4.70
2019-05-03T13:54:47.868Z,5.37
2019-05-03T13:57:17.458Z,4.13
2019-05-03T13:59:55.481Z,4.97
2019-05-03T14:05:17.418Z,3.67
2019-05-03T14:08:04.807Z,3.87
2019-05-03T14:10:51.467Z,3.07
2019-05-03T14:13:44.548Z,3.40
2019-05-03T14:59:09.091Z,6.17
2019-05-03T15:05:30.364Z,6.53
2019-05-03T15:10:56.221Z,7.27
2019-05-03T15:13:38.770Z,6.53
2019-05-03T15:16:09.837Z,6.30
2019-05-03T15:19:00.692Z,5.70
2019-05-03T15:24:58.924Z,7.23
2019-05-03T15:27:35.277Z,3.83
2019-05-03T15:30:05.257Z,5.67
2019-05-03T15:32:35.361Z,5.80
2019-05-03T15:35:11.283Z,6.33
2019-05-03T15:37:45.537Z,5.53
2019-05-03T15:49:04.585Z,3.37
2019-05-03T15:51:53.941Z,5.73
2019-05-03T15:56:58.711Z,5.20
2019-05-03T15:59:28.241Z,5.73
2019-05-03T16:01:59.640Z,5.37
2019-05-03T16:04:30.547Z,4.20
2019-05-03T16:07:14.956Z,4.73
2019-05-03T16:12:54.491Z,4.47
2019-05-03T16:15:29.961Z,3.73
2019-05-03T16:17:59.347Z,5.07
2019-05-03T16:20:29.740Z,4.10
2019-05-03T16:22:59.403Z,3.53
2019-05-03T16:25:28.957Z,4.70
2019-05-03T16:28:15.916Z,3.47
2019-05-03T16:30:56.127Z,2.57
2019-05-03T16:33:28.370Z,1.70
2019-05-03T16:35:59.046Z,2.80
2019-05-03T16:38:37.622Z,3.40
2019-05-03T16:41:29.341Z,2.80
2019-05-03T16:46:52.985Z,3.53
2019-05-03T16:49:25.861Z,2.50
2019-05-03T16:51:58.148Z,3.30
2019-05-03T16:54:35.841Z,3.07
2019-05-03T16:57:05.880Z,1.83
2019-05-03T16:59:59.048Z,2.37
2019-05-03T17:05:29.135Z,1.97
2019-05-03T17:08:20.918Z,2.03
2019-05-03T17:11:09.374Z,2.23
2019-05-03T17:13:55.076Z,2.50
2019-05-03T17:16:26.750Z,2.50
2019-05-03T17:18:58.702Z,2.40
2019-05-03T17:21:30.684Z,2.20
2019-05-03T17:24:19.030Z,2.00
2019-05-03T17:27:00.257Z,1.93
2019-05-03T17:29:58.207Z,2.30
2019-05-03T17:32:29.603Z,2.10
2019-05-03T17:35:40.275Z,1.90
2019-05-03T17:38:20.980Z,1.57
2019-05-03T17:44:34.574Z,1.70
2019-05-03T17:47:25.587Z,1.93
2019-05-03T17:52:54.492Z,1.80
2019-05-03T17:55:49.453Z,1.80
2019-05-03T17:59:08.463Z,2.30
2019-05-03T18:02:22.457Z,1.87
2019-05-03T18:05:25.010Z,2.20
2019-05-03T18:08:55.100Z,2.27
2019-05-03T18:11:52.225Z,2.10
2019-05-03T18:14:44.910Z,2.40
2019-05-03T18:17:18.288Z,1.83
2019-05-03T18:20:07.195Z,2.47
2019-05-03T18:22:36.945Z,1.97
2019-05-03T18:25:09.144Z,2.27
2019-05-03T18:27:38.804Z,2.03
2019-05-03T18:30:10.002Z,2.07
2019-05-03T18:32:40.478Z,2.00
2019-05-03T18:35:12.712Z,1.90
2019-05-03T18:37:43.040Z,1.83
2019-05-03T18:40:12.787Z,2.70
2019-05-03T18:43:02.319Z,1.90
2019-05-03T18:46:05.937Z,1.90
2019-05-03T18:48:35.516Z,1.90
2019-05-03T18:51:05.445Z,2.40
2019-05-03T18:53:35.131Z,1.50
2019-05-03T18:56:06.374Z,2.23
2019-05-03T18:58:40.412Z,1.87
2019-05-03T19:01:10.061Z,2.33
2019-05-03T19:03:42.962Z,2.07
2019-05-03T19:06:12.933Z,1.67
2019-05-03T19:09:09.229Z,1.87
2019-05-03T19:11:46.177Z,1.70
2019-05-03T19:14:18.017Z,1.70
2019-05-03T19:17:15.338Z,2.10
2019-05-03T19:20:04.854Z,2.20
2019-05-03T19:22:34.640Z,2.27
2019-05-03T19:25:04.048Z,1.90
2019-05-03T19:27:34.659Z,2.07
2019-05-03T19:30:04.732Z,2.73
2019-05-03T19:32:35.797Z,2.50
2019-05-03T19:35:06.209Z,1.93
2019-05-03T19:37:35.719Z,1.60
2019-05-03T19:40:06.620Z,2.40
2019-05-03T19:42:36.241Z,2.47
2019-05-03T19:45:06.508Z,2.00
2019-05-03T19:47:35.856Z,1.90
2019-05-03T19:50:05.802Z,2.53
2019-05-03T19:52:45.392Z,2.23
2019-05-03T19:55:15.432Z,1.63
2019-05-03T19:57:45.008Z,1.90
2019-05-03T20:00:16.285Z,2.00
2019-05-03T20:02:58.421Z,2.00
2019-05-03T20:05:53.784Z,1.80
2019-05-03T20:08:36.414Z,2.53
2019-05-03T20:11:25.664Z,2.03
2019-05-03T20:14:09.439Z,2.03
2019-05-03T20:16:39.758Z,1.80
2019-05-03T20:25:29.185Z,2.13
2019-05-03T20:28:24.750Z,2.17
2019-05-03T20:31:59.804Z,2.27
2019-05-03T20:40:47.831Z,2.50
2019-05-03T20:57:24.702Z,2.27
2019-05-03T21:21:00.562Z,1.93
2019-05-03T21:32:28.521Z,2.17
2019-05-03T21:38:04.756Z,2.70
2019-05-03T21:40:59.409Z,2.87
2019-05-03T21:43:29.300Z,2.30
2019-05-03T21:46:09.404Z,2.40
2019-05-03T21:48:57.866Z,2.60
2019-05-03T21:51:34.628Z,2.20
2019-05-03T21:54:06.758Z,2.53
2019-05-03T21:56:37.762Z,2.63
2019-05-03T21:59:10.664Z,2.20
2019-05-03T22:01:48.209Z,2.77
2019-05-03T22:04:19.123Z,2.50
2019-05-03T22:06:54.884Z,2.87
2019-05-03T22:09:34.833Z,2.87
2019-05-03T22:12:05.363Z,3.00
2019-05-03T22:14:45.408Z,2.77
2019-05-03T22:17:52.647Z,2.93
2019-05-03T22:20:35.062Z,2.53
2019-05-03T22:23:37.561Z,2.20
2019-05-03T22:26:15.480Z,2.07
2019-05-03T22:28:45.946Z,2.20
2019-05-03T22:31:19.851Z,2.23
2019-05-03T22:33:49.633Z,2.60
2019-05-03T22:36:19.459Z,2.50
2019-05-03T22:38:50.351Z,2.30
2019-05-03T22:41:20.139Z,2.03
2019-05-03T22:43:55.181Z,2.90
2019-05-03T22:46:33.251Z,2.20
2019-05-03T22:49:07.506Z,1.70
2019-05-03T22:54:31.049Z,1.93
2019-05-03T22:57:01.310Z,2.20
2019-05-03T22:59:34.762Z,1.17
2019-05-03T23:02:04.825Z,1.90
2019-05-03T23:04:36.651Z,2.20
2019-05-03T23:07:14.919Z,2.20
2019-05-03T23:09:54.304Z,1.97
2019-05-03T23:12:24.708Z,1.70
2019-05-03T23:14:55.891Z,1.80
2019-05-03T23:17:26.171Z,1.80
2019-05-03T23:20:01.211Z,2.10
2019-05-03T23:22:32.203Z,2.03
2019-05-03T23:25:01.847Z,1.83
2019-05-03T23:27:35.244Z,1.80
2019-05-03T23:30:11.882Z,2.10
2019-05-03T23:32:42.520Z,1.90
2019-05-03T23:35:12.309Z,2.13
2019-05-03T23:37:44.901Z,2.60
2019-05-03T23:40:15.713Z,2.00
2019-05-03T23:42:45.659Z,1.70
2019-05-03T23:45:15.676Z,2.70
2019-05-03T23:47:47.561Z,2.30
2019-05-03T23:50:19.516Z,1.53
2019-05-03T23:52:54.773Z,2.03
2019-05-03T23:55:47.794Z,1.70
2019-05-03T23:58:17.506Z,2.10
